sensor_id;sensor_type;location;lat;lon;timestamp;pressure;altitude;pressure_sealevel;temperature;humidity
24996;BME280;13016;52.162;21.034;2023-06-22T00:04:44;100431.29;;;26.81;60.93
24996;BME280;13016;52.162;21.034;2023-06-22T00:10:45;100437.95;;;26.75;61.12
24996;BME280;13016;52.162;21.034;2023-06-22T00:16:46;100439.73;;;26.63;61.11
24996;BME280;13016;52.162;21.034;2023-06-22T00:22:46;100435.89;;;26.55;61.32
24996;BME280;13016;52.162;21.034;2023-06-22T00:28:47;100438.19;;;26.57;61.44
24996;BME280;13016;52.162;21.034;2023-06-22T00:34:47;100441.97;;;26.46;61.27
24996;BME280;13016;52.162;21.034;2023-06-22T00:40:47;100438.16;;;26.29;61.93
24996;BME280;13016;52.162;21.034;2023-06-22T00:46:48;100434.23;;;26.27;61.92
24996;BME280;13016;52.162;21.034;2023-06-22T00:52:52;100427.35;;;26.33;61.59
24996;BME280;13016;52.162;21.034;2023-06-22T00:58:53;100428.02;;;26.25;61.60
24996;BME280;13016;52.162;21.034;2023-06-22T01:04:53;100421.27;;;26.22;61.72
24996;BME280;13016;52.162;21.034;2023-06-22T01:11:07;100409.96;;;26.23;61.86
24996;BME280;13016;52.162;21.034;2023-06-22T01:17:09;100401.47;;;26.09;62.42
24996;BME280;13016;52.162;21.034;2023-06-22T01:29:21;100399.50;;;26.19;61.99
24996;BME280;13016;52.162;21.034;2023-06-22T01:35:24;100397.48;;;26.22;61.65
24996;BME280;13016;52.162;21.034;2023-06-22T01:41:26;100387.39;;;26.26;61.48
24996;BME280;13016;52.162;21.034;2023-06-22T01:47:27;100377.15;;;26.20;61.39
24996;BME280;13016;52.162;21.034;2023-06-22T01:53:27;100385.80;;;26.13;61.92
24996;BME280;13016;52.162;21.034;2023-06-22T02:05:58;100409.74;;;26.14;61.80
24996;BME280;13016;52.162;21.034;2023-06-22T02:12:02;100414.98;;;26.03;62.42
24996;BME280;13016;52.162;21.034;2023-06-22T02:18:05;100436.84;;;25.93;62.80
24996;BME280;13016;52.162;21.034;2023-06-22T02:24:05;100446.32;;;25.81;63.22
24996;BME280;13016;52.162;21.034;2023-06-22T02:30:08;100456.09;;;25.73;63.75
24996;BME280;13016;52.162;21.034;2023-06-22T02:36:08;100461.52;;;25.70;64.28
24996;BME280;13016;52.162;21.034;2023-06-22T02:42:09;100460.81;;;25.75;64.51
24996;BME280;13016;52.162;21.034;2023-06-22T02:48:09;100467.66;;;25.78;64.86
24996;BME280;13016;52.162;21.034;2023-06-22T02:54:10;100475.47;;;25.82;65.13
24996;BME280;13016;52.162;21.034;2023-06-22T03:00:10;100488.10;;;25.83;65.43
24996;BME280;13016;52.162;21.034;2023-06-22T03:06:11;100492.55;;;25.89;65.44
24996;BME280;13016;52.162;21.034;2023-06-22T03:12:11;100496.39;;;25.91;65.57
24996;BME280;13016;52.162;21.034;2023-06-22T03:18:12;100499.64;;;25.98;65.41
24996;BME280;13016;52.162;21.034;2023-06-22T03:24:12;100509.35;;;26.00;65.47
24996;BME280;13016;52.162;21.034;2023-06-22T03:30:12;100518.05;;;26.01;65.67
24996;BME280;13016;52.162;21.034;2023-06-22T03:36:12;100515.65;;;26.00;65.73
24996;BME280;13016;52.162;21.034;2023-06-22T03:42:13;100517.50;;;26.11;65.64
24996;BME280;13016;52.162;21.034;2023-06-22T03:48:13;100524.64;;;26.27;65.12
24996;BME280;13016;52.162;21.034;2023-06-22T03:54:13;100534.66;;;26.38;64.55
24996;BME280;13016;52.162;21.034;2023-06-22T04:00:14;100549.13;;;26.48;64.24
24996;BME280;13016;52.162;21.034;2023-06-22T04:06:15;100551.86;;;26.59;63.90
24996;BME280;13016;52.162;21.034;2023-06-22T04:12:15;100550.41;;;26.56;63.79
24996;BME280;13016;52.162;21.034;2023-06-22T04:18:15;100552.33;;;26.60;63.62
24996;BME280;13016;52.162;21.034;2023-06-22T04:24:16;100561.77;;;26.79;63.49
24996;BME280;13016;52.162;21.034;2023-06-22T04:30:16;100560.13;;;26.91;62.71
24996;BME280;13016;52.162;21.034;2023-06-22T04:36:17;100558.53;;;27.02;62.44
24996;BME280;13016;52.162;21.034;2023-06-22T04:42:17;100557.69;;;27.18;61.73
24996;BME280;13016;52.162;21.034;2023-06-22T04:48:17;100554.52;;;27.50;61.11
24996;BME280;13016;52.162;21.034;2023-06-22T04:54:18;100557.03;;;27.66;60.11
24996;BME280;13016;52.162;21.034;2023-06-22T05:00:19;100560.02;;;27.77;59.70
24996;BME280;13016;52.162;21.034;2023-06-22T05:06:23;100561.27;;;27.74;59.31
24996;BME280;13016;52.162;21.034;2023-06-22T05:12:23;100561.55;;;27.73;58.84
24996;BME280;13016;52.162;21.034;2023-06-22T05:18:24;100563.02;;;27.69;58.75
24996;BME280;13016;52.162;21.034;2023-06-22T05:24:24;100554.81;;;27.68;58.87
24996;BME280;13016;52.162;21.034;2023-06-22T05:30:24;100566.70;;;27.64;59.16
24996;BME280;13016;52.162;21.034;2023-06-22T05:36:24;100576.84;;;27.66;58.91
24996;BME280;13016;52.162;21.034;2023-06-22T05:42:24;100582.75;;;27.79;58.64
24996;BME280;13016;52.162;21.034;2023-06-22T05:48:25;100587.42;;;27.83;58.26
24996;BME280;13016;52.162;21.034;2023-06-22T05:54:27;100595.98;;;27.76;58.41
24996;BME280;13016;52.162;21.034;2023-06-22T06:00:27;100599.95;;;27.71;58.42
24996;BME280;13016;52.162;21.034;2023-06-22T06:06:27;100604.87;;;27.62;58.49
24996;BME280;13016;52.162;21.034;2023-06-22T06:12:28;100601.04;;;27.60;58.37
24996;BME280;13016;52.162;21.034;2023-06-22T06:18:29;100610.46;;;27.62;58.56
24996;BME280;13016;52.162;21.034;2023-06-22T06:24:29;100623.80;;;27.77;58.39
24996;BME280;13016;52.162;21.034;2023-06-22T06:30:30;100626.15;;;27.78;58.10
24996;BME280;13016;52.162;21.034;2023-06-22T06:36:30;100624.64;;;27.87;58.03
24996;BME280;13016;52.162;21.034;2023-06-22T06:42:31;100617.08;;;27.85;58.17
24996;BME280;13016;52.162;21.034;2023-06-22T06:48:31;100626.02;;;28.07;57.93
24996;BME280;13016;52.162;21.034;2023-06-22T06:54:35;100624.34;;;28.13;56.95
24996;BME280;13016;52.162;21.034;2023-06-22T07:00:36;100620.30;;;28.32;56.89
24996;BME280;13016;52.162;21.034;2023-06-22T07:13:18;100622.64;;;29.09;54.41
24996;BME280;13016;52.162;21.034;2023-06-22T07:19:24;100617.17;;;29.28;53.33
24996;BME280;13016;52.162;21.034;2023-06-22T07:25:25;100623.27;;;29.64;52.49
24996;BME280;13016;52.162;21.034;2023-06-22T07:31:25;100630.81;;;30.30;50.34
24996;BME280;13016;52.162;21.034;2023-06-22T07:37:28;100638.90;;;31.13;47.75
24996;BME280;13016;52.162;21.034;2023-06-22T07:43:29;100648.02;;;31.66;46.07
24996;BME280;13016;52.162;21.034;2023-06-22T07:49:44;100645.96;;;32.19;44.39
24996;BME280;13016;52.162;21.034;2023-06-22T07:55:45;100644.36;;;32.81;41.91
24996;BME280;13016;52.162;21.034;2023-06-22T08:01:46;100654.75;;;33.67;39.44
24996;BME280;13016;52.162;21.034;2023-06-22T08:14:29;100659.39;;;34.64;36.23
24996;BME280;13016;52.162;21.034;2023-06-22T08:20:29;100656.80;;;34.88;35.50
24996;BME280;13016;52.162;21.034;2023-06-22T08:26:30;100652.04;;;35.15;34.25
24996;BME280;13016;52.162;21.034;2023-06-22T08:32:30;100652.88;;;35.57;34.28
24996;BME280;13016;52.162;21.034;2023-06-22T08:38:33;100645.26;;;36.04;33.82
24996;BME280;13016;52.162;21.034;2023-06-22T08:44:34;100640.48;;;36.41;32.17
24996;BME280;13016;52.162;21.034;2023-06-22T08:50:40;100642.05;;;36.50;31.86
24996;BME280;13016;52.162;21.034;2023-06-22T08:56:41;100642.98;;;36.42;31.89
24996;BME280;13016;52.162;21.034;2023-06-22T09:02:41;100646.59;;;36.32;30.58
24996;BME280;13016;52.162;21.034;2023-06-22T09:08:42;100657.35;;;36.37;31.09
24996;BME280;13016;52.162;21.034;2023-06-22T09:14:42;100662.05;;;36.31;30.00
24996;BME280;13016;52.162;21.034;2023-06-22T09:20:57;100655.08;;;35.59;31.12
24996;BME280;13016;52.162;21.034;2023-06-22T09:27:04;100652.08;;;35.86;30.52
24996;BME280;13016;52.162;21.034;2023-06-22T09:33:04;100641.02;;;35.57;29.85
24996;BME280;13016;52.162;21.034;2023-06-22T09:39:11;100640.23;;;35.72;29.84
24996;BME280;13016;52.162;21.034;2023-06-22T09:45:11;100636.81;;;35.66;29.53
24996;BME280;13016;52.162;21.034;2023-06-22T09:57:50;100632.84;;;35.00;30.82
24996;BME280;13016;52.162;21.034;2023-06-22T10:04:18;100634.94;;;34.70;31.18
24996;BME280;13016;52.162;21.034;2023-06-22T10:10:18;100627.62;;;34.22;32.15
24996;BME280;13016;52.162;21.034;2023-06-22T10:22:57;100630.71;;;33.72;32.80
24996;BME280;13016;52.162;21.034;2023-06-22T10:28:57;100630.77;;;33.41;33.45
24996;BME280;13016;52.162;21.034;2023-06-22T10:35:00;100629.48;;;33.42;33.95
24996;BME280;13016;52.162;21.034;2023-06-22T10:41:01;100607.86;;;33.51;34.81
24996;BME280;13016;52.162;21.034;2023-06-22T10:47:01;100606.24;;;33.60;34.08
24996;BME280;13016;52.162;21.034;2023-06-22T10:53:01;100610.62;;;33.58;34.70
24996;BME280;13016;52.162;21.034;2023-06-22T10:59:01;100601.09;;;33.60;35.07
24996;BME280;13016;52.162;21.034;2023-06-22T11:05:02;100594.96;;;33.66;34.64
24996;BME280;13016;52.162;21.034;2023-06-22T11:11:03;100587.33;;;33.65;34.34
24996;BME280;13016;52.162;21.034;2023-06-22T11:17:12;100588.73;;;33.68;33.90
24996;BME280;13016;52.162;21.034;2023-06-22T11:23:13;100585.84;;;33.63;33.35
24996;BME280;13016;52.162;21.034;2023-06-22T11:29:31;100586.43;;;33.60;33.26
24996;BME280;13016;52.162;21.034;2023-06-22T11:35:32;100580.29;;;33.76;33.30
24996;BME280;13016;52.162;21.034;2023-06-22T11:47:51;100580.57;;;33.63;32.91
24996;BME280;13016;52.162;21.034;2023-06-22T11:53:53;100584.49;;;33.75;32.90
24996;BME280;13016;52.162;21.034;2023-06-22T12:03:16;100577.60;;;33.81;33.25
24996;BME280;13016;52.162;21.034;2023-06-22T12:09:16;100584.71;;;33.91;32.01
24996;BME280;13016;52.162;21.034;2023-06-22T12:15:16;100579.73;;;33.89;32.11
24996;BME280;13016;52.162;21.034;2023-06-22T12:21:17;100574.88;;;33.72;32.66
24996;BME280;13016;52.162;21.034;2023-06-22T12:27:17;100571.08;;;33.67;32.34
24996;BME280;13016;52.162;21.034;2023-06-22T12:33:17;100563.05;;;33.64;31.52
24996;BME280;13016;52.162;21.034;2023-06-22T12:39:17;100560.76;;;33.65;31.62
24996;BME280;13016;52.162;21.034;2023-06-22T12:45:18;100551.29;;;33.70;31.62
24996;BME280;13016;52.162;21.034;2023-06-22T12:51:21;100558.77;;;33.78;31.56
24996;BME280;13016;52.162;21.034;2023-06-22T12:57:22;100554.78;;;33.61;31.39
24996;BME280;13016;52.162;21.034;2023-06-22T13:03:22;100554.85;;;33.64;31.55
24996;BME280;13016;52.162;21.034;2023-06-22T13:09:22;100558.25;;;33.77;31.30
24996;BME280;13016;52.162;21.034;2023-06-22T13:15:26;100556.02;;;33.85;30.89
24996;BME280;13016;52.162;21.034;2023-06-22T13:21:27;100553.21;;;33.66;30.20
24996;BME280;13016;52.162;21.034;2023-06-22T13:27:30;100553.66;;;33.66;29.87
24996;BME280;13016;52.162;21.034;2023-06-22T13:33:38;100552.42;;;33.56;29.45
24996;BME280;13016;52.162;21.034;2023-06-22T13:39:38;100545.45;;;33.56;30.29
24996;BME280;13016;52.162;21.034;2023-06-22T13:45:38;100550.60;;;33.51;29.50
24996;BME280;13016;52.162;21.034;2023-06-22T13:51:39;100555.89;;;33.61;29.13
24996;BME280;13016;52.162;21.034;2023-06-22T13:57:40;100548.14;;;33.65;28.41
24996;BME280;13016;52.162;21.034;2023-06-22T14:03:41;100549.45;;;33.92;29.51
24996;BME280;13016;52.162;21.034;2023-06-22T14:09:41;100545.77;;;34.10;29.49
24996;BME280;13016;52.162;21.034;2023-06-22T14:21:52;100543.71;;;34.05;29.16
24996;BME280;13016;52.162;21.034;2023-06-22T14:27:52;100542.18;;;34.06;29.00
24996;BME280;13016;52.162;21.034;2023-06-22T14:33:52;100538.45;;;34.23;28.56
24996;BME280;13016;52.162;21.034;2023-06-22T14:39:53;100536.30;;;34.10;28.75
24996;BME280;13016;52.162;21.034;2023-06-22T14:45:53;100535.58;;;34.27;29.13
24996;BME280;13016;52.162;21.034;2023-06-22T14:52:02;100541.06;;;34.33;29.90
24996;BME280;13016;52.162;21.034;2023-06-22T14:58:22;100532.48;;;34.19;29.18
24996;BME280;13016;52.162;21.034;2023-06-22T15:04:23;100531.90;;;34.12;29.30
24996;BME280;13016;52.162;21.034;2023-06-22T15:10:23;100526.23;;;33.87;29.59
24996;BME280;13016;52.162;21.034;2023-06-22T15:16:24;100522.20;;;33.72;29.90
24996;BME280;13016;52.162;21.034;2023-06-22T15:22:24;100519.46;;;33.85;30.21
24996;BME280;13016;52.162;21.034;2023-06-22T15:29:09;100518.76;;;33.76;30.12
24996;BME280;13016;52.162;21.034;2023-06-22T15:35:15;100516.47;;;33.65;29.88
24996;BME280;13016;52.162;21.034;2023-06-22T15:41:25;100512.14;;;33.70;30.18
24996;BME280;13016;52.162;21.034;2023-06-22T15:47:25;100512.27;;;33.61;30.20
24996;BME280;13016;52.162;21.034;2023-06-22T15:53:26;100515.33;;;33.70;29.97
24996;BME280;13016;52.162;21.034;2023-06-22T15:59:26;100512.16;;;33.47;29.67
24996;BME280;13016;52.162;21.034;2023-06-22T16:05:26;100511.00;;;33.45;29.61
24996;BME280;13016;52.162;21.034;2023-06-22T16:11:32;100504.28;;;33.27;29.17
24996;BME280;13016;52.162;21.034;2023-06-22T16:17:32;100503.66;;;33.26;29.53
24996;BME280;13016;52.162;21.034;2023-06-22T16:23:32;100510.06;;;33.18;29.50
24996;BME280;13016;52.162;21.034;2023-06-22T16:29:32;100508.53;;;33.00;29.28
24996;BME280;13016;52.162;21.034;2023-06-22T16:35:33;100506.91;;;32.92;29.09
24996;BME280;13016;52.162;21.034;2023-06-22T16:41:33;100505.96;;;32.90;29.07
24996;BME280;13016;52.162;21.034;2023-06-22T16:47:33;100507.02;;;32.97;29.66
24996;BME280;13016;52.162;21.034;2023-06-22T16:53:33;100500.30;;;33.01;29.76
24996;BME280;13016;52.162;21.034;2023-06-22T16:59:34;100491.73;;;32.99;29.62
24996;BME280;13016;52.162;21.034;2023-06-22T17:05:34;100490.08;;;32.93;29.63
24996;BME280;13016;52.162;21.034;2023-06-22T17:11:35;100487.39;;;32.83;29.58
24996;BME280;13016;52.162;21.034;2023-06-22T17:17:46;100485.34;;;32.72;29.84
24996;BME280;13016;52.162;21.034;2023-06-22T17:23:48;100480.82;;;32.64;30.41
24996;BME280;13016;52.162;21.034;2023-06-22T17:30:05;100472.38;;;32.68;30.48
24996;BME280;13016;52.162;21.034;2023-06-22T17:36:12;100470.33;;;32.59;30.46
24996;BME280;13016;52.162;21.034;2023-06-22T17:42:21;100467.30;;;32.46;30.73
24996;BME280;13016;52.162;21.034;2023-06-22T17:48:22;100468.30;;;32.46;30.57
24996;BME280;13016;52.162;21.034;2023-06-22T17:54:23;100466.27;;;32.54;30.88
24996;BME280;13016;52.162;21.034;2023-06-22T18:00:40;100463.48;;;32.48;30.66
24996;BME280;13016;52.162;21.034;2023-06-22T18:06:53;100457.27;;;32.39;31.20
24996;BME280;13016;52.162;21.034;2023-06-22T18:19:35;100457.78;;;32.20;31.44
24996;BME280;13016;52.162;21.034;2023-06-22T18:25:37;100454.16;;;32.12;31.48
24996;BME280;13016;52.162;21.034;2023-06-22T18:32:03;100450.02;;;32.09;32.02
24996;BME280;13016;52.162;21.034;2023-06-22T18:38:05;100443.84;;;31.96;32.03
24996;BME280;13016;52.162;21.034;2023-06-22T18:44:41;100443.06;;;31.92;31.74
24996;BME280;13016;52.162;21.034;2023-06-22T19:09:39;100463.11;;;31.52;32.84
24996;BME280;13016;52.162;21.034;2023-06-22T19:15:43;100471.33;;;31.12;33.61
24996;BME280;13016;52.162;21.034;2023-06-22T19:22:12;100471.49;;;30.78;33.66
24996;BME280;13016;52.162;21.034;2023-06-22T20:17:40;100454.80;;;30.21;34.94
24996;BME280;13016;52.162;21.034;2023-06-22T20:23:44;100443.05;;;29.74;36.10
24996;BME280;13016;52.162;21.034;2023-06-22T20:29:45;100428.05;;;29.50;36.49
24996;BME280;13016;52.162;21.034;2023-06-22T20:35:45;100433.92;;;29.28;36.84
24996;BME280;13016;52.162;21.034;2023-06-22T20:41:45;100424.04;;;29.05;37.40
24996;BME280;13016;52.162;21.034;2023-06-22T20:47:46;100415.03;;;28.77;38.09
24996;BME280;13016;52.162;21.034;2023-06-22T20:54:18;100417.52;;;28.58;38.60
24996;BME280;13016;52.162;21.034;2023-06-22T21:00:18;100416.25;;;28.37;39.10
24996;BME280;13016;52.162;21.034;2023-06-22T21:06:18;100407.66;;;28.16;39.95
24996;BME280;13016;52.162;21.034;2023-06-22T21:12:19;100404.02;;;28.05;39.73
24996;BME280;13016;52.162;21.034;2023-06-22T21:18:19;100402.27;;;27.89;40.60
24996;BME280;13016;52.162;21.034;2023-06-22T21:24:19;100408.46;;;27.80;40.71
24996;BME280;13016;52.162;21.034;2023-06-22T21:30:20;100406.73;;;27.70;40.03
24996;BME280;13016;52.162;21.034;2023-06-22T21:36:20;100401.39;;;27.62;39.89
24996;BME280;13016;52.162;21.034;2023-06-22T21:42:21;100404.78;;;27.61;39.74
24996;BME280;13016;52.162;21.034;2023-06-22T21:48:21;100391.66;;;27.55;39.40
24996;BME280;13016;52.162;21.034;2023-06-22T21:54:21;100387.16;;;27.48;39.09
24996;BME280;13016;52.162;21.034;2023-06-22T22:00:21;100403.70;;;27.52;38.85
24996;BME280;13016;52.162;21.034;2023-06-22T22:06:22;100413.40;;;27.55;38.54
24996;BME280;13016;52.162;21.034;2023-06-22T22:12:22;100422.70;;;27.48;38.62
24996;BME280;13016;52.162;21.034;2023-06-22T22:18:22;100426.91;;;27.41;37.96
24996;BME280;13016;52.162;21.034;2023-06-22T22:24:22;100420.11;;;27.36;37.97
24996;BME280;13016;52.162;21.034;2023-06-22T22:30:23;100419.19;;;27.35;38.12
24996;BME280;13016;52.162;21.034;2023-06-22T22:36:23;100420.50;;;27.29;38.54
24996;BME280;13016;52.162;21.034;2023-06-22T22:42:23;100429.79;;;27.20;38.60
24996;BME280;13016;52.162;21.034;2023-06-22T22:48:23;100428.05;;;27.04;38.51
24996;BME280;13016;52.162;21.034;2023-06-22T22:54:24;100421.27;;;26.91;38.72
24996;BME280;13016;52.162;21.034;2023-06-22T23:00:24;100416.29;;;26.81;38.81
24996;BME280;13016;52.162;21.034;2023-06-22T23:06:24;100417.63;;;26.72;39.06
24996;BME280;13016;52.162;21.034;2023-06-22T23:12:24;100412.25;;;26.58;39.36
24996;BME280;13016;52.162;21.034;2023-06-22T23:18:25;100400.39;;;26.49;39.58
24996;BME280;13016;52.162;21.034;2023-06-22T23:24:25;100401.76;;;26.43;39.97
24996;BME280;13016;52.162;21.034;2023-06-22T23:30:25;100388.41;;;26.35;40.04
24996;BME280;13016;52.162;21.034;2023-06-22T23:36:26;100369.85;;;26.20;40.68
24996;BME280;13016;52.162;21.034;2023-06-22T23:42:26;100360.23;;;26.18;40.70
24996;BME280;13016;52.162;21.034;2023-06-22T23:48:27;100349.52;;;26.17;41.04
24996;BME280;13016;52.162;21.034;2023-06-22T23:54:27;100340.52;;;26.05;41.50
